createdAt,value
2023-05-20T00:01:46.661Z,2.40
2023-05-20T00:04:16.600Z,1.93
2023-05-20T00:06:46.615Z,2.20
2023-05-20T00:09:17.220Z,1.93
2023-05-20T00:11:47.236Z,2.20
2023-05-20T00:14:17.174Z,1.97
2023-05-20T00:16:49.625Z,2.50
2023-05-20T00:19:19.540Z,2.00
2023-05-20T00:21:49.433Z,2.10
2023-05-20T00:24:19.265Z,2.23
2023-05-20T00:26:49.042Z,2.23
2023-05-20T00:29:19.095Z,2.00
2023-05-20T00:31:51.619Z,2.00
2023-05-20T00:34:22.104Z,2.17
2023-05-20T00:36:52.329Z,2.13
2023-05-20T00:39:22.448Z,1.97
2023-05-20T00:41:52.339Z,2.10
2023-05-20T00:44:24.185Z,2.33
2023-05-20T00:46:57.082Z,2.40
2023-05-20T00:49:27.293Z,2.40
2023-05-20T00:51:57.307Z,2.30
2023-05-20T00:54:27.212Z,2.60
2023-05-20T00:56:57.530Z,2.20
2023-05-20T00:59:27.865Z,1.77
2023-05-20T01:02:00.473Z,2.23
2023-05-20T01:04:30.854Z,2.50
2023-05-20T01:07:01.204Z,1.80
2023-05-20T01:09:32.333Z,2.00
2023-05-20T01:12:09.818Z,2.40
2023-05-20T01:14:46.733Z,2.40
2023-05-20T01:17:22.890Z,2.43
2023-05-20T01:19:54.072Z,2.20
2023-05-20T01:22:29.915Z,2.70
2023-05-20T01:24:59.818Z,2.20
2023-05-20T01:27:30.489Z,2.20
2023-05-20T01:30:00.409Z,2.57
2023-05-20T01:32:35.020Z,1.77
2023-05-20T01:35:06.287Z,2.33
2023-05-20T01:37:41.508Z,2.83
2023-05-20T01:40:13.053Z,1.70
2023-05-20T01:42:44.551Z,2.90
2023-05-20T01:45:15.158Z,2.20
2023-05-20T01:47:47.945Z,2.50
2023-05-20T01:50:17.763Z,2.57
2023-05-20T01:52:50.235Z,1.90
2023-05-20T01:55:20.263Z,2.10
2023-05-20T01:57:50.112Z,2.13
2023-05-20T02:00:20.123Z,2.23
2023-05-20T02:02:50.075Z,2.10
2023-05-20T02:05:20.250Z,2.70
2023-05-20T02:07:52.693Z,2.13
2023-05-20T02:10:23.964Z,2.00
2023-05-20T02:12:53.863Z,2.33
2023-05-20T02:15:23.772Z,1.77
2023-05-20T02:17:53.986Z,2.00
2023-05-20T02:20:23.834Z,1.80
2023-05-20T02:22:56.332Z,2.30
2023-05-20T02:25:26.165Z,2.20
2023-05-20T02:27:55.956Z,2.50
2023-05-20T02:30:25.838Z,1.97
2023-05-20T02:32:55.823Z,2.23
2023-05-20T02:35:26.438Z,2.07
2023-05-20T02:37:59.010Z,1.80
2023-05-20T02:40:28.849Z,2.10
2023-05-20T02:42:58.690Z,2.20
2023-05-20T02:45:28.625Z,2.33
2023-05-20T02:47:58.475Z,1.80
2023-05-20T02:50:28.799Z,2.33
2023-05-20T02:53:01.220Z,1.60
2023-05-20T02:55:31.170Z,1.90
2023-05-20T02:58:01.173Z,1.83
2023-05-20T03:00:31.696Z,1.80
2023-05-20T03:03:01.791Z,1.90
2023-05-20T03:05:32.952Z,2.00
2023-05-20T03:08:05.605Z,1.77
2023-05-20T03:10:35.458Z,2.10
2023-05-20T03:13:05.432Z,2.37
2023-05-20T03:15:35.528Z,2.30
2023-05-20T03:18:06.104Z,1.90
2023-05-20T03:20:37.020Z,1.60
2023-05-20T03:23:09.832Z,1.90
2023-05-20T03:25:40.379Z,1.70
2023-05-20T03:28:10.214Z,1.60
2023-05-20T03:30:41.130Z,2.07
2023-05-20T03:33:11.054Z,1.60
2023-05-20T03:35:40.976Z,1.40
2023-05-20T03:38:13.385Z,1.80
2023-05-20T03:40:43.224Z,1.73
2023-05-20T03:43:13.196Z,2.27
2023-05-20T03:45:42.991Z,1.83
2023-05-20T03:48:12.794Z,2.00
2023-05-20T03:50:46.300Z,1.63
2023-05-20T03:53:20.385Z,2.00
2023-05-20T03:55:50.212Z,1.73
2023-05-20T03:58:20.922Z,1.90
2023-05-20T04:00:51.786Z,1.50
2023-05-20T04:03:23.169Z,1.53
2023-05-20T04:05:53.258Z,2.50
2023-05-20T04:08:27.856Z,1.90
2023-05-20T04:10:59.370Z,1.87
2023-05-20T04:13:29.187Z,2.27
2023-05-20T04:15:58.944Z,1.93
2023-05-20T04:18:30.060Z,2.17
2023-05-20T04:21:01.836Z,2.10
2023-05-20T04:23:34.399Z,1.90
2023-05-20T04:26:04.176Z,1.50
2023-05-20T04:28:37.919Z,1.90
2023-05-20T04:31:08.322Z,2.10
2023-05-20T04:33:39.845Z,1.87
2023-05-20T04:36:16.685Z,2.00
2023-05-20T04:38:49.948Z,2.00
2023-05-20T04:41:19.784Z,1.50
2023-05-20T04:43:50.080Z,2.30
2023-05-20T04:46:20.764Z,1.97
2023-05-20T04:48:51.171Z,1.83
2023-05-20T04:51:21.040Z,2.20
2023-05-20T04:53:53.661Z,2.20
2023-05-20T04:56:23.886Z,2.63
2023-05-20T04:58:53.685Z,1.93
2023-05-20T05:01:23.625Z,2.53
2023-05-20T05:03:53.882Z,1.67
2023-05-20T05:06:24.421Z,2.20
2023-05-20T05:08:56.848Z,1.70
2023-05-20T05:11:26.935Z,1.80
2023-05-20T05:13:58.012Z,1.83
2023-05-20T05:16:29.621Z,2.43
2023-05-20T05:18:59.527Z,1.70
2023-05-20T05:21:31.706Z,2.27
2023-05-20T05:24:04.069Z,1.83
2023-05-20T05:26:34.093Z,1.90
2023-05-20T05:29:05.326Z,2.10
2023-05-20T05:31:35.678Z,1.80
2023-05-20T05:34:05.508Z,2.10
2023-05-20T05:36:36.844Z,1.77
2023-05-20T05:39:09.355Z,1.83
2023-05-20T05:41:41.694Z,2.10
2023-05-20T05:44:11.683Z,2.17
2023-05-20T05:46:41.592Z,1.83
2023-05-20T05:49:11.473Z,2.20
2023-05-20T05:51:41.288Z,2.37
2023-05-20T05:54:13.745Z,2.43
2023-05-20T05:56:43.611Z,2.30
2023-05-20T05:59:13.517Z,1.90
2023-05-20T06:01:43.797Z,1.87
2023-05-20T06:04:13.727Z,2.37
2023-05-20T06:06:43.866Z,2.10
2023-05-20T06:09:16.244Z,1.93
2023-05-20T06:11:46.146Z,2.00
2023-05-20T06:14:16.151Z,2.47
2023-05-20T06:16:46.073Z,2.10
2023-05-20T06:19:16.182Z,2.60
2023-05-20T06:21:46.055Z,2.30
2023-05-20T06:24:18.659Z,2.37
2023-05-20T06:26:50.604Z,2.10
2023-05-20T06:29:21.046Z,2.37
2023-05-20T06:31:51.064Z,2.23
2023-05-20T06:34:21.014Z,2.40
2023-05-20T06:36:50.861Z,2.30
2023-05-20T06:39:23.247Z,2.10
2023-05-20T06:41:53.067Z,2.33
2023-05-20T06:44:31.008Z,2.03
2023-05-20T06:47:03.686Z,2.60
2023-05-20T06:49:34.730Z,2.20
2023-05-20T06:52:04.576Z,2.40
2023-05-20T06:54:40.255Z,2.37
2023-05-20T06:57:11.047Z,2.93
2023-05-20T06:59:41.840Z,2.67
2023-05-20T07:02:12.028Z,2.60
2023-05-20T07:04:41.933Z,2.70
2023-05-20T07:07:11.904Z,2.60
2023-05-20T07:09:44.268Z,3.00
2023-05-20T07:12:14.134Z,2.37
2023-05-20T07:14:43.944Z,2.83
2023-05-20T07:17:14.389Z,2.87
2023-05-20T07:19:46.463Z,3.13
2023-05-20T07:22:16.667Z,2.87
2023-05-20T07:25:08.287Z,2.90
2023-05-20T07:27:39.642Z,2.67
2023-05-20T07:30:11.246Z,2.90
2023-05-20T07:32:43.071Z,3.00
2023-05-20T07:35:13.104Z,2.60
2023-05-20T07:37:42.877Z,2.63
2023-05-20T07:40:15.774Z,2.60
2023-05-20T07:42:45.600Z,2.47
2023-05-20T07:45:15.403Z,2.80
2023-05-20T07:47:45.362Z,3.10
2023-05-20T07:50:15.609Z,2.80
2023-05-20T07:52:55.849Z,2.73
2023-05-20T07:55:31.402Z,2.77
2023-05-20T07:58:01.498Z,3.33
2023-05-20T08:00:31.667Z,3.20
2023-05-20T08:03:05.806Z,2.97
2023-05-20T08:05:48.350Z,3.17
2023-05-20T08:08:18.480Z,3.10
2023-05-20T08:10:59.696Z,2.70
2023-05-20T08:13:30.700Z,3.33
2023-05-20T08:16:04.151Z,3.03
2023-05-20T08:18:34.351Z,2.70
2023-05-20T08:21:04.177Z,2.40
2023-05-20T08:23:36.789Z,2.80
2023-05-20T08:26:11.638Z,3.20
2023-05-20T08:28:44.564Z,2.90
2023-05-20T08:31:14.624Z,2.80
2023-05-20T08:33:44.474Z,2.87
2023-05-20T08:36:14.324Z,2.73
2023-05-20T08:38:44.115Z,2.77
2023-05-20T08:41:16.503Z,2.50
2023-05-20T08:43:49.223Z,2.40
2023-05-20T08:46:20.421Z,2.80
2023-05-20T08:48:51.003Z,2.37
2023-05-20T08:51:24.218Z,2.40
2023-05-20T08:53:54.471Z,2.73
2023-05-20T08:56:30.072Z,2.20
2023-05-20T08:59:00.950Z,1.77
2023-05-20T09:01:30.945Z,2.20
2023-05-20T09:04:00.727Z,2.10
2023-05-20T09:06:30.488Z,2.70
2023-05-20T09:09:00.280Z,2.20
2023-05-20T09:11:33.628Z,2.30
2023-05-20T09:14:03.398Z,2.20
2023-05-20T09:16:33.260Z,2.63
2023-05-20T09:19:03.170Z,2.23
2023-05-20T09:21:33.435Z,2.53
2023-05-20T09:24:05.002Z,2.00
2023-05-20T09:26:37.334Z,2.73
2023-05-20T09:29:08.454Z,2.90
2023-05-20T09:31:39.752Z,1.93
2023-05-20T09:34:09.889Z,2.10
2023-05-20T09:36:42.424Z,2.30
2023-05-20T09:39:16.741Z,2.30
2023-05-20T09:41:55.855Z,2.80
2023-05-20T09:44:25.915Z,2.40
2023-05-20T09:46:56.648Z,2.33
2023-05-20T09:49:28.090Z,2.83
2023-05-20T09:51:59.429Z,1.97
2023-05-20T09:54:30.817Z,2.13
2023-05-20T09:57:03.324Z,2.33
2023-05-20T09:59:34.475Z,2.20
2023-05-20T10:02:04.418Z,2.40
2023-05-20T10:04:36.164Z,2.57
2023-05-20T10:07:40.696Z,2.70
2023-05-20T10:10:22.727Z,3.03
2023-05-20T10:13:04.613Z,3.20
2023-05-20T10:15:44.602Z,2.63
2023-05-20T10:18:24.669Z,2.47
2023-05-20T10:20:54.533Z,2.53
2023-05-20T10:23:26.273Z,2.73
2023-05-20T10:25:57.091Z,2.50
2023-05-20T10:28:37.221Z,2.50
2023-05-20T10:31:20.034Z,2.90
2023-05-20T10:33:50.933Z,2.70
2023-05-20T10:36:29.287Z,3.00
2023-05-20T10:39:00.885Z,3.03
2023-05-20T10:41:32.097Z,2.93
2023-05-20T10:44:09.429Z,2.90
2023-05-20T10:47:00.028Z,2.30
2023-05-20T10:49:37.044Z,2.90
2023-05-20T10:52:07.508Z,2.80
2023-05-20T10:54:39.345Z,3.83
2023-05-20T10:57:10.880Z,3.67
2023-05-20T10:59:43.830Z,3.00
2023-05-20T11:02:14.769Z,4.20
2023-05-20T11:04:46.844Z,2.80
2023-05-20T11:07:17.051Z,2.33
2023-05-20T11:09:52.735Z,3.07
2023-05-20T11:12:24.725Z,3.43
2023-05-20T11:14:57.545Z,2.70
2023-05-20T11:17:27.316Z,2.60
2023-05-20T11:19:57.117Z,2.40
2023-05-20T11:22:26.882Z,2.50
2023-05-20T11:24:56.701Z,2.70
2023-05-20T11:27:26.469Z,2.60
2023-05-20T11:29:58.898Z,2.70
2023-05-20T11:32:29.088Z,2.93
2023-05-20T11:34:59.370Z,2.60
2023-05-20T11:37:29.443Z,2.97
2023-05-20T11:40:10.529Z,6.80
2023-05-20T11:42:40.291Z,1.87
2023-05-20T11:45:16.532Z,2.57
2023-05-20T11:47:46.342Z,2.63
2023-05-20T11:50:20.827Z,2.90
2023-05-20T11:53:00.260Z,3.87
2023-05-20T11:55:30.179Z,2.53
2023-05-20T11:58:02.321Z,2.80
2023-05-20T12:00:49.381Z,3.20
2023-05-20T12:03:22.136Z,2.87
2023-05-20T12:05:52.412Z,2.63
2023-05-20T12:08:23.453Z,2.70
2023-05-20T12:10:53.437Z,3.27
2023-05-20T12:13:24.009Z,2.17
2023-05-20T12:15:56.470Z,2.50
2023-05-20T12:18:26.288Z,2.10
2023-05-20T12:20:56.095Z,3.07
2023-05-20T12:23:26.638Z,2.87
2023-05-20T12:25:56.570Z,2.77
2023-05-20T12:28:26.350Z,2.47
2023-05-20T12:30:58.701Z,2.90
2023-05-20T12:33:28.468Z,2.47
2023-05-20T12:35:58.318Z,2.30
2023-05-20T12:38:28.237Z,2.13
2023-05-20T12:40:58.060Z,3.10
2023-05-20T12:43:27.813Z,2.90
2023-05-20T12:46:00.318Z,2.30
2023-05-20T12:48:30.127Z,3.20
2023-05-20T12:51:00.015Z,2.87
2023-05-20T12:53:29.772Z,2.80
2023-05-20T12:55:59.582Z,2.40
2023-05-20T12:58:29.493Z,2.97
2023-05-20T13:01:01.873Z,2.60
2023-05-20T13:03:31.809Z,2.73
2023-05-20T13:06:02.113Z,3.07
2023-05-20T13:08:31.883Z,2.10
2023-05-20T13:11:01.643Z,2.50
2023-05-20T13:13:31.453Z,2.73
2023-05-20T13:16:03.812Z,3.40
2023-05-20T13:18:33.584Z,3.03
2023-05-20T13:21:03.353Z,2.87
2023-05-20T13:23:33.424Z,3.33
2023-05-20T13:26:03.248Z,2.63
2023-05-20T13:28:32.996Z,3.27
2023-05-20T13:31:05.999Z,2.87
2023-05-20T13:33:35.897Z,3.30
2023-05-20T13:36:05.933Z,3.30
2023-05-20T13:38:37.223Z,2.77
2023-05-20T13:41:07.886Z,3.60
2023-05-20T13:43:37.677Z,2.67
2023-05-20T13:46:10.226Z,3.00
2023-05-20T13:48:40.024Z,2.80
2023-05-20T13:51:09.800Z,3.00
2023-05-20T13:53:39.598Z,2.90
2023-05-20T13:56:09.537Z,2.53
2023-05-20T13:58:39.611Z,2.87
2023-05-20T14:01:12.745Z,2.90
2023-05-20T14:03:43.230Z,2.80
2023-05-20T14:06:15.180Z,3.10
2023-05-20T14:08:45.444Z,3.63
2023-05-20T14:11:15.433Z,5.03
2023-05-20T14:13:45.244Z,3.90
2023-05-20T14:16:17.758Z,4.13
2023-05-20T14:18:47.664Z,3.07
2023-05-20T14:21:17.503Z,4.07
2023-05-20T14:23:47.346Z,3.27
2023-05-20T14:26:17.178Z,3.33
2023-05-20T14:28:47.196Z,3.83
2023-05-20T14:31:19.768Z,3.80
2023-05-20T14:33:50.000Z,3.57
2023-05-20T14:36:20.753Z,4.40
2023-05-20T14:38:51.442Z,3.33
2023-05-20T14:41:22.721Z,3.43
2023-05-20T14:43:53.450Z,3.20
2023-05-20T14:46:26.879Z,3.20
2023-05-20T14:48:57.616Z,3.43
2023-05-20T14:51:28.192Z,3.03
2023-05-20T14:54:00.314Z,3.57
2023-05-20T14:56:31.404Z,3.90
2023-05-20T14:59:04.338Z,3.47
2023-05-20T15:01:38.936Z,3.60
2023-05-20T15:04:09.780Z,4.10
2023-05-20T15:06:41.953Z,4.10
2023-05-20T15:09:12.699Z,3.90
2023-05-20T15:11:42.859Z,3.57
2023-05-20T15:14:13.668Z,4.07
2023-05-20T15:16:47.447Z,4.47
2023-05-20T15:19:17.721Z,5.53
2023-05-20T15:21:49.825Z,8.70
2023-05-20T15:24:20.011Z,4.30
2023-05-20T15:26:50.476Z,6.90
2023-05-20T15:29:21.281Z,4.37
2023-05-20T15:31:54.242Z,3.80
2023-05-20T15:34:24.639Z,3.37
2023-05-20T15:36:55.327Z,4.40
2023-05-20T15:39:26.525Z,4.73
2023-05-20T15:41:56.947Z,4.90
2023-05-20T15:44:29.034Z,4.43
2023-05-20T15:47:02.690Z,7.50
2023-05-20T15:49:33.283Z,8.90
2023-05-20T15:52:04.436Z,6.00
2023-05-20T15:54:35.087Z,5.90
2023-05-20T15:57:05.737Z,6.50
2023-05-20T15:59:36.363Z,5.03
2023-05-20T16:02:09.764Z,4.80
2023-05-20T16:04:40.397Z,4.30
2023-05-20T16:07:10.959Z,11.67
2023-05-20T16:09:41.368Z,5.60
2023-05-20T16:12:14.899Z,5.40
2023-05-20T16:14:45.567Z,4.63
2023-05-20T16:17:21.483Z,4.53
2023-05-20T16:19:52.428Z,4.20
2023-05-20T16:22:23.010Z,4.17
2023-05-20T16:24:55.615Z,4.40
2023-05-20T16:27:26.320Z,3.80
2023-05-20T16:29:56.948Z,4.53
2023-05-20T16:32:30.185Z,3.77
2023-05-20T16:35:02.015Z,3.07
2023-05-20T16:37:32.641Z,4.30
2023-05-20T16:40:03.613Z,4.63
2023-05-20T16:42:34.286Z,6.97
2023-05-20T16:45:04.720Z,4.43
2023-05-20T16:47:37.852Z,4.43
2023-05-20T16:50:09.585Z,4.00
2023-05-20T16:52:42.201Z,4.80
2023-05-20T16:55:15.868Z,4.90
2023-05-20T16:57:47.736Z,4.50
2023-05-20T17:00:18.880Z,4.30
2023-05-20T17:02:51.635Z,3.63
2023-05-20T17:05:21.637Z,4.30
2023-05-20T17:07:51.781Z,4.07
2023-05-20T17:10:21.719Z,4.27
2023-05-20T17:12:51.779Z,4.10
2023-05-20T17:15:23.647Z,3.97
2023-05-20T17:17:56.271Z,3.90
2023-05-20T17:20:26.146Z,4.23
2023-05-20T17:22:55.942Z,5.50
2023-05-20T17:25:28.529Z,4.40
2023-05-20T17:27:58.293Z,4.23
2023-05-20T17:30:28.153Z,4.10
2023-05-20T17:33:00.855Z,4.67
2023-05-20T17:35:31.847Z,4.73
2023-05-20T17:38:01.643Z,4.40
2023-05-20T17:40:31.632Z,4.70
2023-05-20T17:43:01.483Z,4.37
2023-05-20T17:45:31.412Z,4.17
2023-05-20T17:48:08.203Z,4.77
2023-05-20T17:50:40.615Z,3.90
2023-05-20T17:53:10.513Z,4.00
2023-05-20T17:55:40.305Z,3.47
2023-05-20T17:58:10.355Z,4.23
2023-05-20T18:00:42.306Z,3.90
2023-05-20T18:03:14.859Z,3.87
2023-05-20T18:05:44.671Z,4.17
2023-05-20T18:08:14.620Z,4.03
2023-05-20T18:10:44.466Z,4.20
2023-05-20T18:13:14.271Z,4.00
2023-05-20T18:15:44.106Z,3.85
2023-05-20T18:18:16.498Z,4.27
2023-05-20T18:20:46.310Z,4.13
2023-05-20T18:23:16.187Z,3.77
2023-05-20T18:25:46.743Z,4.07
2023-05-20T18:28:16.746Z,4.20
2023-05-20T18:30:46.518Z,4.30
2023-05-20T18:33:18.974Z,4.57
2023-05-20T18:35:48.802Z,4.10
2023-05-20T18:38:18.620Z,3.97
2023-05-20T18:40:48.739Z,3.97
2023-05-20T18:43:18.550Z,4.50
2023-05-20T18:45:48.505Z,4.47
2023-05-20T18:48:26.651Z,3.60
2023-05-20T18:50:58.733Z,3.90
2023-05-20T18:53:28.601Z,4.23
2023-05-20T18:56:03.162Z,4.37
2023-05-20T18:58:32.973Z,4.23
2023-05-20T19:01:02.903Z,4.03
2023-05-20T19:03:35.346Z,4.60
2023-05-20T19:06:05.267Z,4.03
2023-05-20T19:08:35.509Z,4.20
2023-05-20T19:11:05.342Z,6.20
2023-05-20T19:13:35.140Z,25.70
2023-05-20T19:16:05.330Z,55.37
2023-05-20T19:18:37.730Z,55.47
2023-05-20T19:21:07.640Z,41.37
2023-05-20T19:23:37.461Z,36.53
2023-05-20T19:26:07.566Z,38.63
2023-05-20T19:28:37.447Z,36.47
2023-05-20T19:31:07.388Z,28.83
2023-05-20T19:33:40.559Z,25.10
2023-05-20T19:36:10.384Z,23.20
2023-05-20T19:38:41.768Z,18.17
2023-05-20T19:41:12.155Z,15.03
2023-05-20T19:43:42.093Z,12.90
2023-05-20T19:46:11.899Z,19.17
2023-05-20T19:48:44.416Z,23.47
2023-05-20T19:51:15.580Z,19.37
2023-05-20T19:53:45.690Z,21.90
2023-05-20T19:56:19.474Z,19.00
2023-05-20T19:58:49.297Z,16.27
2023-05-20T20:01:20.488Z,15.00
2023-05-20T20:03:54.068Z,17.27
2023-05-20T20:06:23.884Z,16.43
2023-05-20T20:08:53.678Z,22.57
2023-05-20T20:11:23.908Z,24.07
2023-05-20T20:13:53.673Z,28.03
2023-05-20T20:16:23.638Z,20.63
2023-05-20T20:18:56.155Z,18.10
2023-05-20T20:21:26.045Z,16.33
2023-05-20T20:23:56.212Z,15.30
2023-05-20T20:26:26.112Z,17.00
2023-05-20T20:28:56.003Z,10.70
2023-05-20T20:31:26.669Z,6.13
2023-05-20T20:33:59.042Z,4.73
2023-05-20T20:36:31.965Z,3.97
2023-05-20T20:39:02.911Z,4.10
2023-05-20T20:41:32.779Z,4.00
2023-05-20T20:44:03.660Z,4.07
2023-05-20T20:46:33.553Z,3.90
2023-05-20T20:49:06.133Z,4.27
2023-05-20T20:51:36.225Z,4.37
2023-05-20T20:54:06.771Z,4.27
2023-05-20T20:56:37.414Z,4.00
2023-05-20T20:59:07.447Z,3.87
2023-05-20T21:01:38.062Z,3.77
2023-05-20T21:04:13.773Z,3.90
2023-05-20T21:06:46.103Z,4.57
2023-05-20T21:09:16.333Z,4.53
2023-05-20T21:11:49.537Z,4.30
2023-05-20T21:14:19.334Z,4.27
2023-05-20T21:16:49.181Z,4.80
2023-05-20T21:19:21.658Z,4.53
2023-05-20T21:21:51.452Z,4.63
2023-05-20T21:24:21.449Z,4.17
2023-05-20T21:26:51.257Z,3.70
2023-05-20T21:29:21.037Z,4.43
2023-05-20T21:31:51.360Z,4.37
2023-05-20T21:34:23.759Z,4.87
2023-05-20T21:36:53.570Z,4.77
2023-05-20T21:39:23.426Z,4.47
2023-05-20T21:41:53.289Z,3.90
2023-05-20T21:44:23.136Z,4.00
2023-05-20T21:46:53.047Z,4.50
2023-05-20T21:49:25.647Z,4.57
2023-05-20T21:51:55.468Z,4.90
2023-05-20T21:54:25.232Z,4.80
2023-05-20T21:56:55.026Z,4.83
2023-05-20T21:59:24.816Z,5.33
2023-05-20T22:01:56.203Z,5.10
2023-05-20T22:04:28.716Z,4.43
2023-05-20T22:06:58.933Z,4.90
2023-05-20T22:09:28.745Z,5.43
2023-05-20T22:11:59.965Z,5.13
2023-05-20T22:14:29.900Z,5.50
2023-05-20T22:16:59.718Z,5.80
2023-05-20T22:19:32.568Z,5.10
2023-05-20T22:22:02.578Z,5.90
2023-05-20T22:24:32.388Z,5.50
2023-05-20T22:27:02.166Z,5.60
2023-05-20T22:29:32.702Z,5.37
2023-05-20T22:32:02.652Z,4.80
2023-05-20T22:34:35.056Z,6.40
2023-05-20T22:37:07.218Z,5.70
2023-05-20T22:39:37.097Z,5.60
2023-05-20T22:42:07.341Z,5.27
2023-05-20T22:44:37.145Z,5.87
2023-05-20T22:47:06.980Z,6.17
2023-05-20T22:49:40.516Z,6.60
2023-05-20T22:52:10.678Z,6.00
2023-05-20T22:54:40.485Z,5.93
2023-05-20T22:57:10.324Z,5.80
2023-05-20T22:59:40.545Z,6.40
2023-05-20T23:02:10.743Z,7.23
2023-05-20T23:04:43.205Z,6.00
2023-05-20T23:07:15.052Z,6.10
2023-05-20T23:09:44.972Z,6.20
2023-05-20T23:12:14.984Z,6.67
2023-05-20T23:14:44.957Z,6.23
2023-05-20T23:17:14.762Z,7.00
2023-05-20T23:19:47.436Z,5.97
2023-05-20T23:22:17.520Z,7.03
2023-05-20T23:24:47.512Z,6.20
2023-05-20T23:27:17.386Z,6.40
2023-05-20T23:29:47.567Z,6.37
2023-05-20T23:32:17.491Z,6.80
2023-05-20T23:34:51.495Z,6.23
2023-05-20T23:37:21.469Z,6.30
2023-05-20T23:39:51.439Z,5.97
2023-05-20T23:42:21.257Z,6.60
2023-05-20T23:44:51.219Z,6.50
2023-05-20T23:47:21.072Z,5.77
2023-05-20T23:49:53.486Z,6.40
2023-05-20T23:52:23.315Z,6.83
2023-05-20T23:54:53.224Z,6.70
2023-05-20T23:57:23.330Z,6.67
2023-05-20T23:59:53.224Z,6.47
